Time;durP1;ratioP1;P1;durP2;ratioP2;P2;SDS_P1;SDS_P2;PMS_P1;PMS_P2;Temp;Humidity;BMP_temperature;BMP_pressure;BME280_temperature;BME280_humidity;BME280_pressure;Samples;Min_cycle;Max_cycle;Signal;HPM_P1;HPM_P2
2023/04/19 00:01:50;;;;;;;8.50;3.90;;;;;;;7.90;66.54;100084.95;106701;1256;59701;-67
2023/04/19 00:04:19;;;;;;;7.90;3.80;;;;;;;7.89;66.66;100080.83;105516;1254;60403;-68
2023/04/19 00:06:48;;;;;;;11.30;4.30;;;;;;;7.87;66.69;100078.65;105607;1260;65807;-69
2023/04/19 00:09:16;;;;;;;8.50;4.40;;;;;;;7.87;66.69;100076.21;105910;1254;60456;-69
2023/04/19 00:11:44;;;;;;;14.60;4.30;;;;;;;7.86;66.56;100072.82;105318;1254;65590;-67
2023/04/19 00:14:12;;;;;;;8.60;4.30;;;;;;;7.84;66.55;100071.93;105273;1256;60466;-67
2023/04/19 00:16:41;;;;;;;10.60;4.20;;;;;;;7.78;66.46;100067.27;105851;1254;60434;-66
2023/04/19 00:19:10;;;;;;;10.40;4.20;;;;;;;7.71;66.70;100064.41;105526;1261;66512;-67
2023/04/19 00:21:38;;;;;;;8.60;4.50;;;;;;;7.65;66.80;100062.73;106264;1258;60428;-67
2023/04/19 00:24:06;;;;;;;9.30;4.20;;;;;;;7.63;66.88;100059.73;105563;1259;65558;-68
2023/04/19 00:26:35;;;;;;;8.80;4.40;;;;;;;7.62;66.98;100058.39;105596;1257;61852;-68
2023/04/19 00:29:03;;;;;;;7.70;4.80;;;;;;;7.61;67.09;100056.52;105827;1254;60820;-68
2023/04/19 00:31:33;;;;;;;8.80;4.60;;;;;;;7.59;67.20;100059.52;105349;1257;66206;-67
2023/04/19 00:34:05;;;;;;;7.70;4.60;;;;;;;7.56;67.32;100058.84;105854;1258;60421;-67
2023/04/19 00:36:33;;;;;;;9.20;4.50;;;;;;;7.55;67.45;100063.64;105404;1257;65601;-67
2023/04/19 00:39:01;;;;;;;9.40;4.90;;;;;;;7.54;67.60;100062.52;105684;1254;61137;-68
2023/04/19 00:41:30;;;;;;;8.60;5.10;;;;;;;7.55;67.72;100059.64;105361;1260;60310;-68
2023/04/19 00:43:58;;;;;;;12.10;4.50;;;;;;;7.57;67.81;100052.64;105282;1255;66084;-68
2023/04/19 00:46:27;;;;;;;8.80;4.60;;;;;;;7.60;67.80;100048.93;105418;1258;60428;-68
2023/04/19 00:48:55;;;;;;;11.20;5.20;;;;;;;7.59;67.80;100042.17;105784;1263;64314;-67
2023/04/19 00:51:23;;;;;;;11.00;4.70;;;;;;;7.55;67.73;100041.21;105029;1262;60852;-69
2023/04/19 00:53:52;;;;;;;7.30;5.00;;;;;;;7.53;67.81;100043.27;105239;1254;60338;-68
2023/04/19 00:56:21;;;;;;;12.80;4.60;;;;;;;7.53;67.94;100041.17;105357;1259;66768;-68
2023/04/19 00:58:49;;;;;;;6.40;4.40;;;;;;;7.55;68.02;100040.59;106079;1254;60548;-68
2023/04/19 01:01:18;;;;;;;12.80;4.70;;;;;;;7.55;68.09;100038.60;106335;1257;64277;-70
2023/04/19 01:03:48;;;;;;;7.20;4.50;;;;;;;7.55;68.15;100036.35;105462;1256;60542;-67
2023/04/19 01:06:16;;;;;;;12.00;4.90;;;;;;;7.54;68.20;100036.95;105924;1255;60598;-67
2023/04/19 01:08:45;;;;;;;7.00;4.10;;;;;;;7.54;68.22;100034.48;105582;1258;66688;-66
2023/04/19 01:11:15;;;;;;;10.10;4.70;;;;;;;7.54;68.36;100033.41;106102;1254;60479;-68
2023/04/19 01:13:44;;;;;;;11.50;5.00;;;;;;;7.58;68.37;100034.55;105936;1254;65581;-68
2023/04/19 01:16:12;;;;;;;10.60;4.70;;;;;;;7.60;68.39;100031.06;105272;1259;60442;-67
2023/04/19 01:18:42;;;;;;;7.40;4.20;;;;;;;7.58;68.32;100035.21;105290;1260;60507;-66
2023/04/19 01:21:11;;;;;;;7.60;4.50;;;;;;;7.54;68.23;100027.27;105203;1262;66967;-67
2023/04/19 01:23:40;;;;;;;9.30;4.90;;;;;;;7.50;68.21;100023.91;105971;1257;60572;-66
2023/04/19 01:26:08;;;;;;;8.70;4.40;;;;;;;7.44;68.32;100021.14;106103;1254;65603;-67
2023/04/19 01:28:36;;;;;;;7.40;4.70;;;;;;;7.40;68.34;100023.02;105486;1254;60320;-66
2023/04/19 01:31:05;;;;;;;7.20;4.70;;;;;;;7.38;68.46;100025.64;105599;1255;60549;-68
2023/04/19 01:33:34;;;;;;;10.60;6.70;;;;;;;7.36;68.60;100027.69;106179;1254;64941;-68
2023/04/19 01:36:02;;;;;;;9.90;5.10;;;;;;;7.36;68.67;100026.64;105082;1254;60707;-67
2023/04/19 01:38:31;;;;;;;7.50;4.80;;;;;;;7.36;68.81;100028.21;105756;1254;65412;-68
2023/04/19 01:40:59;;;;;;;12.80;6.20;;;;;;;7.37;68.85;100032.13;105509;1259;60552;-67
2023/04/19 01:43:28;;;;;;;14.30;8.10;;;;;;;7.40;68.96;100028.63;105533;1257;60351;-70
2023/04/19 01:45:56;;;;;;;13.50;6.30;;;;;;;7.43;69.00;100026.31;105942;1257;66996;-69
2023/04/19 01:48:25;;;;;;;10.00;5.40;;;;;;;7.46;69.10;100028.02;106147;1254;60499;-67
2023/04/19 01:50:53;;;;;;;10.20;5.50;;;;;;;7.49;69.22;100025.91;105931;1258;65806;-67
2023/04/19 01:53:22;;;;;;;12.20;6.50;;;;;;;7.50;69.24;100024.58;105794;1259;60395;-67
2023/04/19 01:55:50;;;;;;;9.80;5.40;;;;;;;7.51;69.22;100021.71;105469;1254;60463;-70
2023/04/19 01:58:20;;;;;;;13.90;6.60;;;;;;;7.52;69.35;100019.02;105131;1259;66481;-67
2023/04/19 02:00:48;;;;;;;80.70;41.80;;;;;;;7.54;69.42;100017.14;105274;1259;60556;-67
2023/04/19 02:03:17;;;;;;;49.90;25.60;;;;;;;7.57;69.43;100017.60;105238;1255;65789;-67
2023/04/19 02:05:45;;;;;;;29.40;14.10;;;;;;;7.59;69.41;100016.75;105178;1259;60435;-69
2023/04/19 02:08:14;;;;;;;15.70;8.40;;;;;;;7.62;69.46;100011.48;105143;1260;60424;-68
2023/04/19 02:10:42;;;;;;;14.30;7.00;;;;;;;7.64;69.39;100003.98;105369;1259;66160;-67
2023/04/19 02:13:10;;;;;;;10.80;6.10;;;;;;;7.64;69.33;100006.08;105911;1254;60413;-67
2023/04/19 02:15:38;;;;;;;12.90;7.70;;;;;;;7.62;69.26;100001.31;105403;1263;65728;-67
2023/04/19 02:18:07;;;;;;;11.70;5.90;;;;;;;7.59;69.17;99997.80;105797;1257;60466;-67
2023/04/19 02:20:35;;;;;;;11.70;5.40;;;;;;;7.55;69.15;99990.91;105485;1254;60530;-67
2023/04/19 02:23:04;;;;;;;9.50;5.00;;;;;;;7.53;69.08;99987.09;105381;1259;66485;-66
2023/04/19 02:25:34;;;;;;;10.40;5.50;;;;;;;7.50;69.04;99981.53;105880;1257;60348;-69
2023/04/19 02:28:02;;;;;;;12.70;5.00;;;;;;;7.46;69.02;99980.21;105534;1259;65653;-67
2023/04/19 02:30:30;;;;;;;9.10;4.80;;;;;;;7.44;69.04;99985.24;105254;1259;60310;-67
2023/04/19 02:32:59;;;;;;;9.10;5.40;;;;;;;7.41;68.94;99987.89;105630;1259;60434;-67
2023/04/19 02:35:27;;;;;;;8.90;5.30;;;;;;;7.38;68.89;99987.59;105715;1256;66655;-67
2023/04/19 02:37:59;;;;;;;10.30;5.20;;;;;;;7.35;68.81;99986.45;105334;1254;61124;-67
2023/04/19 02:40:28;;;;;;;7.70;4.80;;;;;;;7.31;68.80;99986.56;105271;1260;65649;-68
2023/04/19 02:42:58;;;;;;;9.20;4.70;;;;;;;7.27;68.78;99986.50;105322;1259;60438;-68
2023/04/19 02:45:27;;;;;;;7.20;4.90;;;;;;;7.25;68.82;99986.98;105489;1257;60869;-67
2023/04/19 02:47:55;;;;;;;10.30;4.60;;;;;;;7.26;68.76;99989.91;105599;1257;65423;-67
2023/04/19 02:50:25;;;;;;;7.70;4.90;;;;;;;7.27;68.83;99992.64;105660;1260;60418;-68
2023/04/19 02:52:53;;;;;;;9.60;5.10;;;;;;;7.29;68.78;99993.02;105322;1260;64570;-70
2023/04/19 02:55:23;;;;;;;11.80;5.60;;;;;;;7.29;68.66;99994.95;105598;1260;61067;-68
2023/04/19 02:57:59;;;;;;;10.70;5.10;;;;;;;7.27;68.62;99995.05;105484;1254;60469;-68
2023/04/19 03:00:27;;;;;;;5.70;4.60;;;;;;;7.26;68.61;99994.26;105679;1259;67149;-66
2023/04/19 03:03:03;;;;;;;8.50;4.70;;;;;;;7.26;68.53;99998.85;105304;1260;61406;-66
2023/04/19 03:05:32;;;;;;;8.60;5.10;;;;;;;7.25;68.48;99999.10;105490;1260;65283;-67
2023/04/19 03:08:00;;;;;;;7.60;5.10;;;;;;;7.22;68.46;100000.29;105537;1257;60380;-67
2023/04/19 03:10:29;;;;;;;7.10;4.50;;;;;;;7.21;68.48;100000.37;105429;1254;60811;-72
2023/04/19 03:12:58;;;;;;;9.50;4.70;;;;;;;7.19;68.44;100003.38;105300;1260;65554;-69
2023/04/19 03:15:26;;;;;;;9.00;4.30;;;;;;;7.15;68.43;100002.40;105115;1259;60450;-67
2023/04/19 03:17:54;;;;;;;7.40;4.50;;;;;;;7.12;68.46;100005.25;105400;1254;64845;-67
2023/04/19 03:20:22;;;;;;;8.50;4.50;;;;;;;7.09;68.43;100006.53;106268;1260;60328;-68
2023/04/19 03:22:51;;;;;;;12.50;4.10;;;;;;;7.06;68.53;100007.30;105569;1260;60375;-67
2023/04/19 03:25:20;;;;;;;8.20;4.60;;;;;;;7.03;68.64;100004.12;105278;1257;66461;-67
2023/04/19 03:27:55;;;;;;;7.30;4.20;;;;;;;7.02;68.77;100002.65;105283;1255;60408;-69
2023/04/19 03:30:38;;;;;;;;;;;;;;;7.01;68.87;100003.58;105233;1262;65879;-67
2023/04/19 03:33:06;;;;;;;9.80;4.70;;;;;;;7.02;68.91;100001.07;105396;1254;60733;-69
2023/04/19 03:35:35;;;;;;;10.80;4.60;;;;;;;7.04;69.05;100000.57;105544;1254;60462;-69
2023/04/19 03:38:08;;;;;;;9.80;4.90;;;;;;;7.06;69.15;99997.81;105398;1259;66431;-68
2023/04/19 03:40:37;;;;;;;11.80;5.20;;;;;;;7.07;69.10;99996.30;105515;1260;60488;-67
2023/04/19 03:43:05;;;;;;;9.80;4.30;;;;;;;7.08;69.08;99997.17;105611;1256;64584;-68
2023/04/19 03:45:35;;;;;;;7.50;4.30;;;;;;;7.08;69.15;99995.06;105772;1260;60475;-67
2023/04/19 03:48:03;;;;;;;7.20;4.40;;;;;;;7.09;69.27;99994.27;105478;1255;60412;-69
2023/04/19 03:50:32;;;;;;;8.90;4.70;;;;;;;7.12;69.34;99996.65;105246;1262;66793;-66
2023/04/19 03:53:03;;;;;;;9.10;4.60;;;;;;;7.18;69.47;99997.95;105586;1257;60427;-69
2023/04/19 03:55:31;;;;;;;11.00;5.00;;;;;;;7.26;69.48;100001.63;105393;1260;65298;-66
2023/04/19 03:58:00;;;;;;;12.50;4.80;;;;;;;7.33;69.51;99998.64;104992;1257;60448;-69
2023/04/19 04:00:40;;;;;;;7.70;4.30;;;;;;;7.41;69.52;99998.05;105544;1256;60320;-67
2023/04/19 04:03:08;;;;;;;9.50;4.50;;;;;;;7.50;69.53;99996.90;105952;1254;64879;-69
2023/04/19 04:05:37;;;;;;;8.50;4.80;;;;;;;7.57;69.45;99993.61;105325;1254;60457;-67
2023/04/19 04:08:05;;;;;;;11.20;5.10;;;;;;;7.64;69.39;99989.95;106142;1257;65375;-69
2023/04/19 04:10:34;;;;;;;11.50;4.80;;;;;;;7.72;69.27;99990.21;105509;1270;60377;-67
2023/04/19 04:13:02;;;;;;;8.30;4.20;;;;;;;7.80;69.19;99991.91;105466;1260;60536;-67
2023/04/19 04:15:38;;;;;;;9.70;4.40;;;;;;;7.88;69.02;99991.27;105905;1257;66228;-69
2023/04/19 04:18:07;;;;;;;8.90;4.00;;;;;;;7.97;68.94;99991.52;106063;1259;60345;-68
2023/04/19 04:20:37;;;;;;;9.80;4.20;;;;;;;8.05;68.81;99994.92;105800;1260;64361;-69
2023/04/19 04:23:07;;;;;;;8.60;4.30;;;;;;;8.14;68.65;99998.80;105461;1259;60411;-67
2023/04/19 04:25:38;;;;;;;10.80;4.20;;;;;;;8.23;68.46;100001.13;105621;1257;60524;-68
2023/04/19 04:28:09;;;;;;;9.40;4.20;;;;;;;8.31;68.24;99999.80;105539;1256;66367;-69
2023/04/19 04:30:39;;;;;;;17.20;3.90;;;;;;;8.39;67.95;99990.48;105843;1254;60456;-68
2023/04/19 04:41:11;;;;;;;8.20;3.90;;;;;;;8.73;66.95;99984.52;102213;1291;606869;-68
2023/04/19 04:43:38;;;;;;;7.80;3.90;;;;;;;8.79;66.48;99982.99;105116;1258;59447;-69
2023/04/19 04:46:05;;;;;;;8.30;3.60;;;;;;;8.87;66.06;99981.31;105241;1262;59164;-68
2023/04/19 04:48:36;;;;;;;12.00;4.00;;;;;;;8.93;65.77;99980.95;105518;1259;65169;-66
2023/04/19 04:51:04;;;;;;;7.80;4.10;;;;;;;8.99;65.51;99977.19;105075;1260;59257;-68
2023/04/19 04:53:31;;;;;;;10.70;4.20;;;;;;;9.05;65.12;99980.20;104896;1262;215688;-68
2023/04/19 04:55:59;;;;;;;11.20;4.00;;;;;;;9.12;64.93;99982.99;105073;1256;59256;-69
2023/04/19 04:58:26;;;;;;;8.30;4.30;;;;;;;9.16;64.51;99984.71;105396;1251;59324;-68
2023/04/19 05:01:05;;;;;;;9.80;4.30;;;;;;;9.22;64.09;99987.98;105760;1256;65129;-69
2023/04/19 05:03:35;;;;;;;11.70;4.20;;;;;;;9.27;63.81;99986.52;105577;1251;60050;-70
2023/04/19 05:06:04;;;;;;;9.60;4.20;;;;;;;9.34;63.71;99983.12;105769;1251;65595;-70
2023/04/19 05:08:31;;;;;;;10.70;4.00;;;;;;;9.42;63.50;99982.31;105937;1253;59609;-69
2023/04/19 05:11:09;;;;;;;12.00;4.20;;;;;;;9.49;63.20;99985.12;105850;1253;59298;-70
2023/04/19 05:13:36;;;;;;;11.60;4.30;;;;;;;9.53;62.82;99980.18;105829;1251;65809;-68
2023/04/19 05:16:03;;;;;;;11.90;3.90;;;;;;;9.57;62.61;99975.98;106014;1253;59705;-68
2023/04/19 05:18:31;;;;;;;9.40;3.80;;;;;;;9.61;62.26;99978.65;105832;1251;65374;-69
2023/04/19 05:20:57;;;;;;;10.20;3.60;;;;;;;9.64;62.13;99979.27;106134;1256;59664;-68
2023/04/19 05:23:27;;;;;;;12.10;3.70;;;;;;;9.69;61.99;99975.56;105972;1251;59717;-68
2023/04/19 05:25:54;;;;;;;16.90;4.10;;;;;;;9.75;62.00;99973.28;105935;1253;64917;-71
2023/04/19 05:28:22;;;;;;;13.40;3.90;;;;;;;9.82;61.75;99971.48;105628;1251;59898;-69
2023/04/19 05:30:58;;;;;;;9.40;3.80;;;;;;;9.91;61.50;99974.12;105657;1257;65337;-69
2023/04/19 05:33:28;;;;;;;11.00;3.60;;;;;;;9.98;61.45;99967.84;105679;1257;59656;-70
2023/04/19 05:35:58;;;;;;;16.90;4.10;;;;;;;10.07;61.23;99966.41;105701;1253;59733;-70
2023/04/19 05:38:27;;;;;;;15.00;3.50;;;;;;;10.14;60.81;99964.77;105768;1256;65937;-70
2023/04/19 05:40:56;;;;;;;14.70;3.80;;;;;;;10.19;60.70;99963.43;105847;1258;59631;-69
2023/04/19 05:43:23;;;;;;;24.60;4.40;;;;;;;10.25;60.47;99962.80;105788;1253;65626;-68
2023/04/19 05:45:50;;;;;;;16.20;4.20;;;;;;;10.30;60.28;99959.38;105703;1253;59740;-69
2023/04/19 05:48:16;;;;;;;13.70;4.10;;;;;;;10.35;60.02;99955.76;105884;1253;59655;-70
2023/04/19 05:51:03;;;;;;;23.10;4.50;;;;;;;10.42;59.74;99950.13;105373;1253;64811;-69
2023/04/19 05:53:40;;;;;;;17.10;3.70;;;;;;;10.47;59.76;99947.70;105712;1253;59788;-69
2023/04/19 05:56:07;;;;;;;26.90;4.10;;;;;;;10.54;59.72;99947.97;105735;1258;65326;-69
2023/04/19 05:58:35;;;;;;;12.80;3.90;;;;;;;10.62;59.57;99950.98;105653;1253;59755;-67
2023/04/19 06:01:03;;;;;;;16.90;3.40;;;;;;;10.70;59.45;99952.93;105770;1253;59641;-72
2023/04/19 06:03:32;;;;;;;16.00;3.80;;;;;;;10.78;59.48;99953.46;105717;1259;64974;-70
2023/04/19 06:05:59;;;;;;;13.30;3.20;;;;;;;10.89;59.42;99952.55;105798;1253;59824;-69
2023/04/19 06:08:27;;;;;;;8.00;3.20;;;;;;;11.00;59.34;99953.67;105677;1258;65515;-69
2023/04/19 06:10:55;;;;;;;11.20;3.50;;;;;;;11.09;58.96;99953.89;105699;1256;59739;-71
2023/04/19 06:13:31;;;;;;;12.00;3.20;;;;;;;11.17;58.82;99954.24;105709;1258;59578;-69
2023/04/19 06:15:58;;;;;;;13.80;3.50;;;;;;;11.26;58.84;99954.70;105784;1253;65912;-72
2023/04/19 06:18:24;;;;;;;11.30;3.40;;;;;;;11.33;58.79;99956.70;105863;1255;59886;-70
2023/04/19 06:20:52;;;;;;;14.30;3.50;;;;;;;11.39;58.69;99950.36;105673;1258;65621;-69
2023/04/19 06:23:19;;;;;;;11.50;3.50;;;;;;;11.43;58.40;99949.27;105789;1253;59741;-70
2023/04/19 06:25:47;;;;;;;14.30;3.90;;;;;;;11.45;58.02;99948.77;105492;1259;59622;-70
2023/04/19 06:28:14;;;;;;;11.30;3.80;;;;;;;11.48;57.88;99948.50;106087;1259;65708;-68
2023/04/19 06:30:41;;;;;;;13.20;3.50;;;;;;;11.53;57.90;99945.84;106101;1256;59624;-69
2023/04/19 06:33:08;;;;;;;11.50;3.40;;;;;;;11.57;57.87;99944.41;105884;1253;65407;-70
2023/04/19 06:35:35;;;;;;;11.30;3.40;;;;;;;11.63;57.89;99944.73;105779;1253;59724;-71
2023/04/19 06:38:02;;;;;;;13.00;3.40;;;;;;;11.67;57.59;99943.95;105759;1253;59680;-70
2023/04/19 06:40:29;;;;;;;8.70;3.50;;;;;;;11.72;57.57;99945.56;105669;1254;66001;-66
2023/04/19 06:42:56;;;;;;;12.50;3.40;;;;;;;11.81;57.57;99949.09;105896;1253;59762;-70
2023/04/19 06:45:22;;;;;;;12.60;3.40;;;;;;;11.89;57.61;99952.39;105814;1253;65883;-69
2023/04/19 06:47:49;;;;;;;8.00;3.30;;;;;;;11.98;57.56;99957.17;105835;1259;59658;-68
2023/04/19 06:50:16;;;;;;;11.60;3.50;;;;;;;12.07;57.36;99958.52;105863;1254;59631;-69
2023/04/19 06:52:43;;;;;;;9.70;3.50;;;;;;;12.15;57.25;99954.02;105464;1261;65681;-70
2023/04/19 06:55:10;;;;;;;13.50;3.70;;;;;;;12.25;57.56;99955.04;106073;1257;59634;-70
2023/04/19 06:57:37;;;;;;;14.40;3.10;;;;;;;12.36;57.33;99955.29;105623;1256;65363;-69
2023/04/19 07:00:05;;;;;;;13.50;3.90;;;;;;;12.47;56.98;99954.95;105638;1258;59656;-69
2023/04/19 07:02:33;;;;;;;10.20;3.00;;;;;;;12.58;57.26;99957.03;106098;1253;59659;-69
2023/04/19 07:05:01;;;;;;;16.00;3.30;;;;;;;12.70;57.11;99959.10;105703;1261;65988;-67
2023/04/19 07:07:28;;;;;;;12.40;3.30;;;;;;;12.82;56.88;99960.79;105809;1259;59982;-67
2023/04/19 07:09:55;;;;;;;12.50;3.50;;;;;;;12.93;56.73;99958.11;105950;1253;66334;-68
2023/04/19 07:12:24;;;;;;;8.40;2.90;;;;;;;13.03;56.44;99955.05;106068;1253;59657;-69
2023/04/19 07:14:55;;;;;;;13.90;3.70;;;;;;;13.11;56.15;99954.96;105815;1257;59504;-67
2023/04/19 07:17:22;;;;;;;12.10;3.10;;;;;;;13.20;56.08;99959.11;105815;1258;65651;-68
2023/04/19 07:19:49;;;;;;;124.70;11.80;;;;;;;13.30;55.98;99962.02;105824;1255;59789;-70
2023/04/19 07:22:15;;;;;;;104.10;12.30;;;;;;;13.39;55.58;99964.48;105548;1258;65414;-66
2023/04/19 07:24:43;;;;;;;17.70;4.40;;;;;;;13.49;55.47;99970.45;105574;1254;59636;-68
2023/04/19 07:27:10;;;;;;;15.00;3.70;;;;;;;13.59;55.36;99969.23;105680;1259;59691;-68
2023/04/19 07:29:36;;;;;;;14.90;4.10;;;;;;;13.65;54.85;99972.30;105834;1253;66083;-69
2023/04/19 07:32:05;;;;;;;9.40;3.00;;;;;;;13.66;54.50;99969.77;105946;1253;59803;-69
2023/04/19 07:34:33;;;;;;;10.80;3.10;;;;;;;13.65;54.12;99972.16;105841;1254;65428;-69
2023/04/19 07:36:59;;;;;;;8.40;3.10;;;;;;;13.64;54.20;99975.30;105896;1255;59734;-69
2023/04/19 07:39:27;;;;;;;11.00;3.20;;;;;;;13.67;54.02;99974.27;105841;1253;59654;-68
2023/04/19 07:41:54;;;;;;;13.30;3.20;;;;;;;13.72;53.85;99970.80;105758;1257;65903;-69
2023/04/19 07:44:20;;;;;;;11.90;3.40;;;;;;;13.79;54.11;99972.23;105528;1258;59963;-69
2023/04/19 07:46:47;;;;;;;65.40;6.90;;;;;;;13.89;54.18;99971.41;105913;1253;65622;-67
2023/04/19 07:49:14;;;;;;;58.90;6.70;;;;;;;13.96;54.14;99973.90;105786;1258;59635;-68
2023/04/19 07:51:41;;;;;;;14.60;3.30;;;;;;;14.04;54.01;99969.15;105856;1254;59550;-69
2023/04/19 07:54:09;;;;;;;15.50;3.40;;;;;;;14.15;53.89;99968.04;105888;1254;65806;-69
2023/04/19 07:56:36;;;;;;;16.10;3.60;;;;;;;14.29;53.93;99967.91;106054;1257;59665;-69
2023/04/19 07:59:02;;;;;;;17.80;3.70;;;;;;;14.38;53.61;99969.61;106102;1253;65409;-69
2023/04/19 08:01:38;;;;;;;10.60;2.90;;;;;;;14.42;53.28;99967.84;106096;1255;59711;-69
2023/04/19 08:04:13;;;;;;;11.70;3.40;;;;;;;14.43;53.13;99965.65;105941;1258;59748;-69
2023/04/19 08:06:42;;;;;;;14.30;3.50;;;;;;;14.45;53.11;99965.43;106307;1258;64422;-69
2023/04/19 08:09:08;;;;;;;16.90;3.40;;;;;;;14.50;53.15;99960.98;105571;1253;60052;-69
2023/04/19 08:11:36;;;;;;;17.80;3.40;;;;;;;14.60;53.06;99956.77;105526;1254;64633;-67
2023/04/19 08:14:04;;;;;;;21.00;3.80;;;;;;;14.70;52.91;99955.96;106141;1256;59612;-70
2023/04/19 08:16:48;;;;;;;17.80;3.60;;;;;;;14.78;52.60;99957.88;105941;1254;59533;-67
2023/04/19 08:19:17;;;;;;;15.10;3.20;;;;;;;14.81;52.15;99959.31;105748;1257;65760;-68
2023/04/19 08:21:44;;;;;;;25.50;3.80;;;;;;;14.82;52.17;99959.81;105883;1253;59964;-66
2023/04/19 08:24:11;;;;;;;9.20;3.30;;;;;;;14.86;52.28;99959.17;105784;1254;65353;-68
2023/04/19 08:26:38;;;;;;;9.90;2.80;;;;;;;14.97;52.36;99954.37;105732;1259;59633;-68
2023/04/19 08:29:04;;;;;;;15.20;3.30;;;;;;;15.08;52.23;99951.08;105673;1258;60181;-67
2023/04/19 08:31:31;;;;;;;13.90;3.10;;;;;;;15.22;52.41;99950.13;105928;1253;66354;-68
2023/04/19 08:33:59;;;;;;;12.70;3.20;;;;;;;15.35;52.15;99951.02;105722;1257;59595;-68
2023/04/19 08:36:28;;;;;;;13.50;3.40;;;;;;;15.42;51.95;99947.94;105659;1254;74201;-67
2023/04/19 08:39:07;;;;;;;23.10;4.40;;;;;;;15.49;51.92;99949.77;105749;1253;59655;-69
2023/04/19 08:41:47;;;;;;;14.70;3.90;;;;;;;15.52;51.82;99944.80;106527;1253;59778;-69
2023/04/19 08:44:25;;;;;;;12.30;3.80;;;;;;;15.54;51.73;99940.48;105807;1255;66037;-66
2023/04/19 08:47:04;;;;;;;15.00;3.80;;;;;;;15.52;51.72;99934.48;105587;1256;59711;-68
2023/04/19 08:49:38;;;;;;;14.80;3.50;;;;;;;15.53;52.06;99932.82;105473;1260;64700;-66
2023/04/19 08:52:09;;;;;;;10.60;4.00;;;;;;;15.59;52.08;99934.25;105922;1257;60550;-66
2023/04/19 08:54:36;;;;;;;14.60;3.70;;;;;;;15.65;52.08;99935.44;105463;1259;60358;-69
2023/04/19 08:57:02;;;;;;;13.30;3.50;;;;;;;15.68;52.05;99935.11;105940;1254;67044;-65
2023/04/19 08:59:29;;;;;;;13.90;3.90;;;;;;;15.69;51.97;99936.27;105755;1256;60425;-66
2023/04/19 09:01:59;;;;;;;12.80;3.90;;;;;;;15.67;52.00;99935.05;105829;1254;65896;-67
2023/04/19 09:04:26;;;;;;;9.80;3.80;;;;;;;15.67;52.03;99936.08;105496;1253;60355;-66
2023/04/19 09:07:00;;;;;;;14.60;3.80;;;;;;;15.71;52.29;99938.89;105483;1255;60447;-70
2023/04/19 09:09:29;;;;;;;14.30;4.10;;;;;;;15.70;52.49;99942.29;105966;1253;66776;-71
2023/04/19 09:11:59;;;;;;;16.70;3.60;;;;;;;15.71;52.55;99941.26;106415;1260;60531;-70
2023/04/19 09:14:26;;;;;;;12.40;3.50;;;;;;;15.76;52.67;99939.61;107437;1253;64390;-69
2023/04/19 09:16:53;;;;;;;16.40;4.00;;;;;;;15.77;52.66;99940.07;105673;1259;60326;-69
2023/04/19 09:19:20;;;;;;;17.50;3.50;;;;;;;15.78;52.54;99943.27;106011;1254;60460;-69
2023/04/19 09:21:52;;;;;;;15.20;3.40;;;;;;;15.77;52.51;99942.11;106276;1254;66697;-70
2023/04/19 09:24:21;;;;;;;19.40;3.90;;;;;;;15.74;52.48;99944.38;105950;1254;60545;-67
2023/04/19 09:26:54;;;;;;;14.20;3.70;;;;;;;15.72;52.57;99945.45;105993;1253;65346;-68
2023/04/19 09:29:21;;;;;;;12.40;3.70;;;;;;;15.77;52.86;99945.20;105710;1258;60499;-67
2023/04/19 09:31:58;;;;;;;15.40;3.50;;;;;;;15.89;53.18;99943.50;105787;1253;60487;-67
2023/04/19 09:34:27;;;;;;;17.90;4.20;;;;;;;16.07;53.05;99946.63;105279;1253;65595;-69
2023/04/19 09:36:54;;;;;;;15.60;3.80;;;;;;;16.24;52.64;99939.26;105696;1258;60536;-68
2023/04/19 09:39:38;;;;;;;19.40;3.80;;;;;;;16.39;51.96;99941.40;105706;1258;65594;-68
2023/04/19 09:42:05;;;;;;;13.70;3.70;;;;;;;16.46;51.29;99940.24;105835;1258;61135;-67
2023/04/19 09:44:34;;;;;;;18.70;3.70;;;;;;;16.51;51.15;99942.53;105682;1254;60517;-66
2023/04/19 09:47:23;;;;;;;17.20;3.50;;;;;;;16.63;51.06;99941.38;105621;1253;66698;-68
2023/04/19 09:50:07;;;;;;;16.80;3.70;;;;;;;16.77;51.08;99938.38;106008;1253;60508;-68
2023/04/19 09:52:49;;;;;;;16.50;3.50;;;;;;;16.96;50.67;99936.33;106457;1257;65418;-71
2023/04/19 09:55:17;;;;;;;22.50;4.20;;;;;;;17.10;50.02;99933.34;105911;1257;60603;-68
2023/04/19 09:57:54;;;;;;;27.70;4.30;;;;;;;17.20;50.04;99933.45;105665;1254;60531;-69
2023/04/19 10:00:21;;;;;;;20.90;4.20;;;;;;;17.29;49.52;99934.44;105476;1258;66631;-70
2023/04/19 10:02:56;;;;;;;19.70;5.00;;;;;;;17.34;49.46;99931.83;105685;1261;60581;-68
2023/04/19 10:05:24;;;;;;;20.00;4.40;;;;;;;17.39;49.19;99928.80;106099;1254;65366;-66
2023/04/19 10:07:52;;;;;;;18.20;4.40;;;;;;;17.40;48.97;99929.16;105897;1254;60432;-68
2023/04/19 10:10:22;;;;;;;22.30;4.10;;;;;;;17.41;48.76;99926.98;105604;1259;60438;-67
2023/04/19 10:13:09;;;;;;;28.20;4.90;;;;;;;17.42;48.90;99925.70;106044;1253;65804;-69
2023/04/19 10:15:47;;;;;;;22.30;5.10;;;;;;;17.47;48.81;99921.11;105444;1257;60572;-69
2023/04/19 10:18:21;;;;;;;17.10;4.50;;;;;;;17.50;48.84;99920.73;105739;1255;65612;-69
2023/04/19 10:21:01;;;;;;;21.30;4.50;;;;;;;17.53;49.04;99923.80;105686;1258;60419;-67
2023/04/19 10:23:28;;;;;;;25.00;4.70;;;;;;;17.58;49.33;99929.12;105825;1259;60523;-67
2023/04/19 10:25:56;;;;;;;27.80;4.60;;;;;;;17.55;49.36;99927.12;105978;1261;66665;-68
2023/04/19 10:28:23;;;;;;;20.30;4.30;;;;;;;17.45;49.42;99932.36;106117;1257;60454;-71
2023/04/19 10:30:55;;;;;;;29.20;4.60;;;;;;;17.37;49.45;99931.31;105824;1253;65347;-69
2023/04/19 10:33:26;;;;;;;32.30;4.70;;;;;;;17.27;49.50;99934.48;105696;1261;60511;-68
2023/04/19 10:35:57;;;;;;;28.10;4.30;;;;;;;17.13;49.68;99931.77;105654;1253;60528;-69
2023/04/19 10:38:46;;;;;;;26.40;4.20;;;;;;;17.05;50.00;99931.30;105707;1254;65602;-70
2023/04/19 10:41:17;;;;;;;28.90;4.60;;;;;;;17.02;50.41;99931.45;105719;1253;60543;-68
2023/04/19 10:43:54;;;;;;;23.40;4.70;;;;;;;16.99;50.10;99935.39;105474;1261;65421;-69
2023/04/19 10:46:23;;;;;;;26.40;4.90;;;;;;;16.87;50.04;99937.01;105599;1253;60384;-69
2023/04/19 10:48:56;;;;;;;23.20;4.30;;;;;;;16.78;50.43;99939.34;105916;1258;60343;-68
2023/04/19 10:51:27;;;;;;;23.00;4.60;;;;;;;16.75;50.67;99940.42;106109;1256;65425;-69
2023/04/19 10:53:55;;;;;;;24.30;4.90;;;;;;;16.71;50.88;99941.34;106180;1258;60443;-71
2023/04/19 10:56:51;;;;;;;30.10;4.80;;;;;;;16.68;51.29;99945.38;105633;1253;65531;-68
2023/04/19 10:59:21;;;;;;;24.40;4.50;;;;;;;16.71;51.55;99948.07;105882;1259;60493;-67
2023/04/19 11:01:52;;;;;;;26.00;4.50;;;;;;;16.76;51.46;99944.55;105620;1253;60431;-65
2023/04/19 11:04:29;;;;;;;31.30;4.70;;;;;;;16.82;51.69;99947.20;105892;1257;66787;-69
2023/04/19 11:07:00;;;;;;;23.50;4.40;;;;;;;16.96;51.93;99942.11;105386;1256;60601;-68
2023/04/19 11:09:34;;;;;;;37.90;4.10;;;;;;;17.14;51.74;99944.09;105578;1254;65467;-67
2023/04/19 11:12:08;;;;;;;23.60;4.20;;;;;;;17.30;51.34;99944.73;105537;1258;60543;-68
2023/04/19 11:14:36;;;;;;;28.20;4.10;;;;;;;17.42;51.23;99943.73;105240;1261;60378;-70
2023/04/19 11:17:14;;;;;;;22.30;3.80;;;;;;;17.51;50.92;99942.24;105603;1262;66579;-68
2023/04/19 11:19:43;;;;;;;31.80;5.20;;;;;;;17.63;51.08;99942.56;105598;1253;60460;-68
2023/04/19 11:22:10;;;;;;;112.20;10.40;;;;;;;17.86;50.81;99937.58;105615;1253;65779;-68
2023/04/19 11:24:37;;;;;;;244.10;15.10;;;;;;;18.12;49.99;99937.17;105688;1254;60442;-67
2023/04/19 11:27:07;;;;;;;66.00;7.00;;;;;;;18.31;49.00;99939.54;105686;1258;60387;-68
2023/04/19 11:29:34;;;;;;;34.00;5.90;;;;;;;18.47;48.76;99938.88;105582;1254;65603;-69
2023/04/19 11:32:01;;;;;;;30.70;5.20;;;;;;;18.65;48.78;99938.38;105533;1254;60451;-71
2023/04/19 11:34:28;;;;;;;28.00;4.40;;;;;;;18.81;48.28;99933.58;105597;1259;65618;-68
2023/04/19 11:36:55;;;;;;;30.50;5.10;;;;;;;18.90;47.31;99936.95;106002;1257;60517;-67
2023/04/19 11:39:22;;;;;;;29.60;5.00;;;;;;;18.81;46.66;99938.15;105561;1254;60536;-70
2023/04/19 11:41:49;;;;;;;34.40;5.60;;;;;;;18.64;46.74;99946.54;105709;1257;66887;-65